createdAt,value
2018-05-27T00:00:52.418Z,79.17
2018-05-27T00:02:45.421Z,79.85
2018-05-27T00:03:45.479Z,79.66
2018-05-27T00:05:38.487Z,79.75
2018-05-27T00:06:38.545Z,79.66
2018-05-27T00:08:31.550Z,79.46
2018-05-27T00:09:31.608Z,79.71
2018-05-27T00:11:24.611Z,79.46
2018-05-27T00:12:24.679Z,79.56
2018-05-27T00:14:17.683Z,79.52
2018-05-27T00:15:17.740Z,79.81
2018-05-27T00:17:10.742Z,79.81
2018-05-27T00:18:10.804Z,79.90
2018-05-27T00:20:03.814Z,79.81
2018-05-27T00:21:03.883Z,79.81
2018-05-27T00:22:56.882Z,80.00
2018-05-27T00:23:56.941Z,80.38
2018-05-27T00:25:49.943Z,80.29
2018-05-27T00:26:50.011Z,80.19
2018-05-27T00:28:43.011Z,80.10
2018-05-27T00:29:43.069Z,80.48
2018-05-27T00:31:36.076Z,80.38
2018-05-27T00:32:36.140Z,80.58
2018-05-27T00:34:29.142Z,80.29
2018-05-27T00:35:29.202Z,80.00
2018-05-27T00:37:22.225Z,80.29
2018-05-27T00:38:22.264Z,80.38
2018-05-27T00:40:15.273Z,80.38
2018-05-27T00:41:15.337Z,80.29
2018-05-27T00:43:08.332Z,80.38
2018-05-27T00:44:08.398Z,80.00
2018-05-27T00:46:01.391Z,80.38
2018-05-27T00:47:01.461Z,80.10
2018-05-27T00:48:54.465Z,80.10
2018-05-27T00:49:54.607Z,79.86
2018-05-27T00:51:47.523Z,80.06
2018-05-27T00:52:47.584Z,79.77
2018-05-27T00:54:40.584Z,79.90
2018-05-27T00:55:40.646Z,80.25
2018-05-27T00:57:33.649Z,79.86
2018-05-27T00:58:33.715Z,79.96
2018-05-27T01:00:26.724Z,79.86
2018-05-27T01:01:26.782Z,80.15
2018-05-27T01:03:19.790Z,79.86
2018-05-27T01:04:19.850Z,80.15
2018-05-27T01:06:12.848Z,79.77
2018-05-27T01:07:12.915Z,79.86
2018-05-27T01:09:05.922Z,79.38
2018-05-27T01:10:05.981Z,79.10
2018-05-27T01:11:58.981Z,79.28
2018-05-27T01:12:59.043Z,79.00
2018-05-27T01:14:52.045Z,79.05
2018-05-27T01:15:52.105Z,78.77
2018-05-27T01:17:45.107Z,78.52
2018-05-27T01:18:45.171Z,78.67
2018-05-27T01:20:38.170Z,78.52
2018-05-27T01:21:38.234Z,78.00
2018-05-27T01:23:31.231Z,77.90
2018-05-27T01:24:31.288Z,77.71
2018-05-27T01:26:24.286Z,77.33
2018-05-27T01:27:24.351Z,77.51
2018-05-27T01:29:17.354Z,78.09
2018-05-27T01:30:17.414Z,77.61
2018-05-27T01:32:10.409Z,77.61
2018-05-27T01:33:10.475Z,77.23
2018-05-27T01:35:03.478Z,77.42
2018-05-27T01:36:03.539Z,77.23
2018-05-27T01:37:56.539Z,77.04
2018-05-27T01:38:56.603Z,76.56
2018-05-27T01:40:49.602Z,76.65
2018-05-27T01:41:49.661Z,77.04
2018-05-27T01:43:42.663Z,76.75
2018-05-27T01:44:42.722Z,76.84
2018-05-27T01:46:35.737Z,76.36
2018-05-27T01:47:35.803Z,76.46
2018-05-27T01:49:28.804Z,76.07
2018-05-27T01:50:28.864Z,75.75
2018-05-27T01:52:21.866Z,74.40
2018-05-27T01:53:21.932Z,74.40
2018-05-27T01:55:14.936Z,74.50
2018-05-27T01:56:14.994Z,74.21
2018-05-27T01:58:08.002Z,73.63
2018-05-27T01:59:08.065Z,73.25
2018-05-27T02:01:01.068Z,73.44
2018-05-27T02:02:01.124Z,73.25
2018-05-27T02:03:54.119Z,72.00
2018-05-27T02:04:54.187Z,73.15
2018-05-27T02:06:47.191Z,72.19
2018-05-27T02:07:47.250Z,72.48
2018-05-27T02:09:40.251Z,72.29
2018-05-27T02:10:40.361Z,72.38
2018-05-27T02:12:33.304Z,72.19
2018-05-27T02:13:33.370Z,72.38
2018-05-27T02:15:26.374Z,72.38
2018-05-27T02:16:26.430Z,71.81
2018-05-27T02:18:19.427Z,72.00
2018-05-27T02:19:19.491Z,71.52
2018-05-27T02:21:12.496Z,71.33
2018-05-27T02:22:12.557Z,71.39
2018-05-27T02:24:05.560Z,71.23
2018-05-27T02:25:05.620Z,72.38
2018-05-27T02:26:58.620Z,71.48
2018-05-27T02:27:58.680Z,71.52
2018-05-27T02:29:51.683Z,71.14
2018-05-27T02:30:51.742Z,71.29
2018-05-27T02:32:44.737Z,70.75
2018-05-27T02:33:44.802Z,70.43
2018-05-27T02:35:37.803Z,69.85
2018-05-27T02:36:37.863Z,70.04
2018-05-27T02:38:30.859Z,69.75
2018-05-27T02:39:30.924Z,70.43
2018-05-27T02:41:23.931Z,70.23
2018-05-27T02:42:23.987Z,69.46
2018-05-27T02:44:16.983Z,68.51
2018-05-27T02:45:17.048Z,69.75
2018-05-27T02:47:10.049Z,69.08
2018-05-27T02:48:10.109Z,68.02
2018-05-27T02:50:03.111Z,68.41
2018-05-27T02:51:03.169Z,67.83
2018-05-27T02:52:56.171Z,66.07
2018-05-27T02:53:56.238Z,67.03
2018-05-27T02:55:49.241Z,67.16
2018-05-27T02:56:49.297Z,67.51
2018-05-27T02:58:42.291Z,66.16
2018-05-27T02:59:42.357Z,66.07
2018-05-27T03:01:35.365Z,66.07
2018-05-27T03:02:35.427Z,65.30
2018-05-27T03:04:28.419Z,65.97
2018-05-27T03:05:28.484Z,66.55
2018-05-27T03:07:21.486Z,67.32
2018-05-27T03:08:21.545Z,67.03
2018-05-27T03:10:14.550Z,67.80
2018-05-27T03:11:14.608Z,67.13
2018-05-27T03:13:07.602Z,67.32
2018-05-27T03:14:07.672Z,67.99
2018-05-27T03:16:01.179Z,67.22
2018-05-27T03:17:01.237Z,67.13
2018-05-27T03:18:54.230Z,66.84
2018-05-27T03:19:54.296Z,66.64
2018-05-27T03:21:47.294Z,66.84
2018-05-27T03:22:47.357Z,66.07
2018-05-27T03:24:40.355Z,66.84
2018-05-27T03:25:40.422Z,66.64
2018-05-27T03:27:33.418Z,67.13
2018-05-27T03:28:33.476Z,66.93
2018-05-27T03:30:26.482Z,67.70
2018-05-27T03:31:26.534Z,66.93
2018-05-27T03:33:19.529Z,66.64
2018-05-27T03:34:19.597Z,67.51
2018-05-27T03:36:12.595Z,67.13
2018-05-27T03:37:12.653Z,66.16
2018-05-27T03:39:05.646Z,66.55
2018-05-27T03:40:05.709Z,66.64
2018-05-27T03:41:58.714Z,67.32
2018-05-27T03:42:58.771Z,66.93
2018-05-27T03:44:51.764Z,66.16
2018-05-27T03:45:51.827Z,66.16
2018-05-27T03:47:44.831Z,64.72
2018-05-27T03:48:44.887Z,66.07
2018-05-27T03:50:37.887Z,65.30
2018-05-27T03:51:37.944Z,66.26
2018-05-27T03:53:30.939Z,65.78
2018-05-27T03:54:31.005Z,66.07
2018-05-27T03:56:24.005Z,66.26
2018-05-27T03:57:24.063Z,66.26
2018-05-27T03:59:17.058Z,65.59
2018-05-27T04:00:17.122Z,65.56
2018-05-27T04:02:10.122Z,65.40
2018-05-27T04:03:10.183Z,65.40
2018-05-27T04:05:03.171Z,64.31
2018-05-27T04:06:03.240Z,65.08
2018-05-27T04:07:56.237Z,65.11
2018-05-27T04:08:56.295Z,65.69
2018-05-27T04:10:49.298Z,65.11
2018-05-27T04:11:49.360Z,65.20
2018-05-27T04:13:42.351Z,66.16
2018-05-27T04:14:42.417Z,66.16
2018-05-27T04:16:36.914Z,65.59
2018-05-27T04:17:36.972Z,65.40
2018-05-27T04:19:29.964Z,65.59
2018-05-27T04:20:30.030Z,65.01
2018-05-27T04:22:23.031Z,65.30
2018-05-27T04:23:23.090Z,65.11
2018-05-27T04:25:16.090Z,65.40
2018-05-27T04:26:16.152Z,65.88
2018-05-27T04:28:09.152Z,64.92
2018-05-27T04:29:09.210Z,65.69
2018-05-27T04:31:02.212Z,64.63
2018-05-27T04:32:02.270Z,64.34
2018-05-27T04:33:55.359Z,64.50
2018-05-27T04:34:55.333Z,64.43
2018-05-27T04:36:48.334Z,64.50
2018-05-27T04:37:48.521Z,64.15
2018-05-27T04:39:41.383Z,64.05
2018-05-27T04:40:41.447Z,65.20
2018-05-27T04:42:34.453Z,64.15
2018-05-27T04:43:34.512Z,64.63
2018-05-27T04:45:27.499Z,65.01
2018-05-27T04:46:27.569Z,65.01
2018-05-27T04:48:20.570Z,63.76
2018-05-27T04:49:20.628Z,65.88
2018-05-27T04:51:13.634Z,66.36
2018-05-27T04:52:13.698Z,65.30
2018-05-27T04:54:06.684Z,66.93
2018-05-27T04:55:06.751Z,65.40
2018-05-27T04:56:59.752Z,66.16
2018-05-27T04:57:59.815Z,64.92
2018-05-27T04:59:52.802Z,66.07
2018-05-27T05:00:52.867Z,64.43
2018-05-27T05:02:45.875Z,65.40
2018-05-27T05:03:45.931Z,65.11
2018-05-27T05:05:38.933Z,64.15
2018-05-27T05:06:38.996Z,64.63
2018-05-27T05:08:31.996Z,65.49
2018-05-27T05:09:32.098Z,65.91
2018-05-27T05:11:25.055Z,65.14
2018-05-27T05:12:25.116Z,65.14
2018-05-27T05:14:18.108Z,65.53
2018-05-27T05:15:18.174Z,66.77
2018-05-27T05:17:11.174Z,66.58
2018-05-27T05:18:11.234Z,65.43
2018-05-27T05:20:04.252Z,66.42
2018-05-27T05:21:04.293Z,66.71
2018-05-27T05:22:57.294Z,65.08
2018-05-27T05:23:57.357Z,66.23
2018-05-27T05:25:50.353Z,65.27
2018-05-27T05:26:50.415Z,66.14
2018-05-27T05:28:43.423Z,65.94
2018-05-27T05:29:43.488Z,67.48
2018-05-27T05:31:36.494Z,67.00
2018-05-27T05:32:36.549Z,65.66
2018-05-27T05:34:29.550Z,67.10
2018-05-27T05:35:29.612Z,67.13
2018-05-27T05:37:22.612Z,66.94
2018-05-27T05:38:22.671Z,66.27
2018-05-27T05:40:15.670Z,68.19
2018-05-27T05:41:15.732Z,67.61
2018-05-27T05:43:08.743Z,68.19
2018-05-27T05:44:08.794Z,68.22
2018-05-27T05:46:01.785Z,67.93
2018-05-27T05:47:01.870Z,69.47
2018-05-27T05:48:54.850Z,70.34
2018-05-27T05:49:54.918Z,69.28
2018-05-27T05:51:47.921Z,70.15
2018-05-27T05:52:47.977Z,69.85
2018-05-27T05:54:40.971Z,69.76
2018-05-27T05:55:41.038Z,69.95
2018-05-27T05:57:34.045Z,71.59
2018-05-27T05:58:34.103Z,70.66
2018-05-27T06:00:27.097Z,70.28
2018-05-27T06:01:27.163Z,71.81
2018-05-27T06:03:20.172Z,71.53
2018-05-27T06:04:20.227Z,72.24
2018-05-27T06:06:13.223Z,73.24
2018-05-27T06:07:13.289Z,71.79
2018-05-27T06:09:06.291Z,74.91
2018-05-27T06:10:06.353Z,74.52
2018-05-27T06:11:59.354Z,78.17
2018-05-27T06:12:59.414Z,79.17
2018-05-27T06:14:52.417Z,77.57
2018-05-27T06:15:52.482Z,73.96
2018-05-27T06:17:45.486Z,64.69
2018-05-27T06:18:45.546Z,60.47
2018-05-27T06:20:38.548Z,56.51
2018-05-27T06:21:38.612Z,55.47
2018-05-27T06:23:31.627Z,53.19
2018-05-27T06:24:31.687Z,53.06
2018-05-27T06:26:24.684Z,51.56
2018-05-27T06:27:24.747Z,50.26
2018-05-27T06:29:17.759Z,50.29
2018-05-27T06:30:17.820Z,50.58
2018-05-27T06:32:10.838Z,49.05
2018-05-27T06:33:10.898Z,48.78
2018-05-27T06:35:03.908Z,47.53
2018-05-27T06:36:03.983Z,47.46
2018-05-27T06:37:56.997Z,46.80
2018-05-27T06:38:57.062Z,46.70
2018-05-27T06:40:50.074Z,45.75
2018-05-27T06:41:50.142Z,45.65
2018-05-27T06:43:43.161Z,45.47
2018-05-27T06:44:43.227Z,45.80
2018-05-27T06:46:36.239Z,47.09
2018-05-27T06:47:36.313Z,46.00
2018-05-27T06:49:29.332Z,47.34
2018-05-27T06:50:29.401Z,47.22
2018-05-27T06:52:22.418Z,48.29
2018-05-27T06:53:22.488Z,49.12
2018-05-27T06:55:15.500Z,49.46
2018-05-27T06:56:15.579Z,48.22
2018-05-27T06:58:08.603Z,46.60
2018-05-27T06:59:08.669Z,46.26
2018-05-27T07:01:01.687Z,43.93
2018-05-27T07:02:01.761Z,43.98
2018-05-27T07:03:54.788Z,44.03
2018-05-27T07:04:54.899Z,44.77
2018-05-27T07:06:47.883Z,44.59
2018-05-27T07:07:47.954Z,44.10
2018-05-27T07:09:40.973Z,44.40
2018-05-27T07:10:41.042Z,43.05
2018-05-27T07:12:34.083Z,42.80
2018-05-27T07:13:34.137Z,41.74
2018-05-27T07:15:27.151Z,40.17
2018-05-27T07:16:27.228Z,40.60
2018-05-27T07:18:20.251Z,43.49
2018-05-27T07:19:20.319Z,43.62
2018-05-27T07:21:13.335Z,42.52
2018-05-27T07:22:13.417Z,43.15
2018-05-27T07:24:06.441Z,40.92
2018-05-27T07:25:06.507Z,41.58
2018-05-27T07:26:59.541Z,41.31
2018-05-27T07:27:59.603Z,41.80
2018-05-27T07:29:52.631Z,40.39
2018-05-27T07:30:52.696Z,39.03
2018-05-27T07:32:45.719Z,38.85
2018-05-27T07:33:45.790Z,38.96
2018-05-27T07:35:38.810Z,38.01
2018-05-27T07:36:38.889Z,38.01
2018-05-27T07:38:31.914Z,36.00
2018-05-27T07:39:31.985Z,35.57
2018-05-27T07:41:25.008Z,36.36
2018-05-27T07:42:25.087Z,36.28
2018-05-27T07:44:18.126Z,36.87
2018-05-27T07:45:18.185Z,36.26
2018-05-27T07:47:11.208Z,35.90
2018-05-27T07:48:11.285Z,36.22
2018-05-27T07:50:04.315Z,37.68
2018-05-27T07:51:04.393Z,38.80
2018-05-27T07:52:57.417Z,39.66
2018-05-27T07:53:57.491Z,40.45
2018-05-27T07:55:50.512Z,38.82
2018-05-27T07:56:50.591Z,39.11
2018-05-27T07:58:43.616Z,39.14
2018-05-27T07:59:43.691Z,39.09
2018-05-27T08:01:36.716Z,36.71
2018-05-27T08:02:36.792Z,35.25
2018-05-27T08:04:29.825Z,35.64
2018-05-27T08:05:29.903Z,34.20
2018-05-27T08:07:22.919Z,34.10
2018-05-27T08:08:22.999Z,33.91
2018-05-27T08:10:16.025Z,33.84
2018-05-27T08:11:16.100Z,33.08
2018-05-27T08:13:09.142Z,32.26
2018-05-27T08:14:09.205Z,33.38
2018-05-27T08:16:02.738Z,34.46
2018-05-27T08:17:02.949Z,33.89
2018-05-27T08:18:55.851Z,33.87
2018-05-27T08:19:55.950Z,33.49
2018-05-27T08:21:48.947Z,34.46
2018-05-27T08:22:49.026Z,33.70
2018-05-27T08:24:42.065Z,33.11
2018-05-27T08:25:42.140Z,33.22
2018-05-27T08:27:35.164Z,32.93
2018-05-27T08:28:35.240Z,33.23
2018-05-27T08:30:28.274Z,32.34
2018-05-27T08:31:28.349Z,32.35
2018-05-27T08:33:21.377Z,31.57
2018-05-27T08:34:21.449Z,31.68
2018-05-27T08:36:14.482Z,31.65
2018-05-27T08:37:14.559Z,33.82
2018-05-27T08:39:07.593Z,33.13
2018-05-27T08:40:07.665Z,33.82
2018-05-27T08:42:00.696Z,35.31
2018-05-27T08:43:00.779Z,34.30
2018-05-27T08:44:53.816Z,35.88
2018-05-27T08:45:53.888Z,34.27
2018-05-27T08:47:46.914Z,33.34
2018-05-27T08:48:46.999Z,31.96
2018-05-27T08:50:40.031Z,31.67
2018-05-27T08:51:40.104Z,31.67
2018-05-27T08:53:33.191Z,31.59
2018-05-27T08:54:33.394Z,33.28
2018-05-27T08:56:26.244Z,32.87
2018-05-27T08:57:26.335Z,32.01
2018-05-27T08:59:19.437Z,32.57
2018-05-27T09:00:19.439Z,32.01
2018-05-27T09:02:12.465Z,30.61
2018-05-27T09:03:12.551Z,30.89
2018-05-27T09:05:05.591Z,33.54
2018-05-27T09:06:05.672Z,32.35
2018-05-27T09:07:58.803Z,32.59
2018-05-27T09:08:58.801Z,30.60
2018-05-27T09:10:51.848Z,31.70
2018-05-27T09:11:51.923Z,31.70
2018-05-27T09:13:44.945Z,34.87
2018-05-27T09:14:45.027Z,35.78
2018-05-27T09:16:38.574Z,34.34
2018-05-27T09:17:38.665Z,32.89
2018-05-27T09:19:31.671Z,32.44
2018-05-27T09:20:31.762Z,31.48
2018-05-27T09:22:24.804Z,30.20
2018-05-27T09:23:24.850Z,29.83
2018-05-27T09:25:17.994Z,30.04
2018-05-27T09:26:17.977Z,31.93
2018-05-27T09:28:10.997Z,33.82
2018-05-27T09:29:11.077Z,33.98
2018-05-27T09:31:04.108Z,36.22
2018-05-27T09:32:04.388Z,38.82
2018-05-27T09:33:57.220Z,42.68
2018-05-27T09:34:57.283Z,44.34
2018-05-27T09:36:50.310Z,43.07
2018-05-27T09:37:50.384Z,42.73
2018-05-27T09:39:43.412Z,46.14
2018-05-27T09:40:43.488Z,44.19
2018-05-27T09:42:36.505Z,44.21
2018-05-27T09:43:36.577Z,43.14
2018-05-27T09:45:29.611Z,43.24
2018-05-27T09:46:29.676Z,43.90
2018-05-27T09:48:22.692Z,44.70
2018-05-27T09:49:22.770Z,42.75
2018-05-27T09:51:15.790Z,45.75
2018-05-27T09:52:15.868Z,46.14
2018-05-27T09:54:08.891Z,47.02
2018-05-27T09:55:08.963Z,46.41
2018-05-27T09:57:01.974Z,46.90
2018-05-27T09:58:02.055Z,47.97
2018-05-27T09:59:55.074Z,47.19
2018-05-27T10:00:55.132Z,46.61
2018-05-27T10:02:48.155Z,46.31
2018-05-27T10:03:48.229Z,46.63
2018-05-27T10:05:41.250Z,45.97
2018-05-27T10:06:41.318Z,45.09
2018-05-27T10:08:34.331Z,45.92
2018-05-27T10:09:34.405Z,47.09
2018-05-27T10:11:27.427Z,46.53
2018-05-27T10:12:27.491Z,46.92
2018-05-27T10:14:20.512Z,47.31
2018-05-27T10:15:20.575Z,46.83
2018-05-27T10:17:13.588Z,48.29
2018-05-27T10:18:13.662Z,48.49
2018-05-27T10:20:06.723Z,49.37
2018-05-27T10:21:06.744Z,48.49
2018-05-27T10:22:59.760Z,47.90
2018-05-27T10:23:59.838Z,48.19
2018-05-27T10:25:52.900Z,48.00
2018-05-27T10:26:52.930Z,49.66
2018-05-27T10:28:45.944Z,47.02
2018-05-27T10:29:46.017Z,47.31
2018-05-27T10:31:39.041Z,47.29
2018-05-27T10:32:39.108Z,46.53
2018-05-27T10:34:32.125Z,45.75
2018-05-27T10:35:32.195Z,48.78
2018-05-27T10:37:25.205Z,48.49
2018-05-27T10:38:25.276Z,48.88
2018-05-27T10:40:18.302Z,47.09
2018-05-27T10:41:18.371Z,49.24
2018-05-27T10:43:11.385Z,49.41
2018-05-27T10:44:11.453Z,50.80
2018-05-27T10:46:04.471Z,48.14
2018-05-27T10:47:04.537Z,48.17
2018-05-27T10:48:57.556Z,49.88
2018-05-27T10:49:57.626Z,50.92
2018-05-27T10:51:50.651Z,51.99
2018-05-27T10:52:50.717Z,53.65
2018-05-27T10:54:43.731Z,52.38
2018-05-27T10:55:43.796Z,52.89
2018-05-27T10:57:36.821Z,50.75
2018-05-27T10:58:36.880Z,53.55
2018-05-27T11:00:29.899Z,56.40
2018-05-27T11:01:29.964Z,51.82
2018-05-27T11:03:22.977Z,55.07
2018-05-27T11:04:23.052Z,53.80
2018-05-27T11:06:16.070Z,51.26
2018-05-27T11:07:16.137Z,50.95
2018-05-27T11:09:09.145Z,50.29
2018-05-27T11:10:09.215Z,50.29
2018-05-27T11:12:02.234Z,51.19
2018-05-27T11:13:02.304Z,49.32
2018-05-27T11:14:55.328Z,49.15
2018-05-27T11:15:55.397Z,52.83
2018-05-27T11:17:48.464Z,48.73
2018-05-27T11:18:48.476Z,50.26
2018-05-27T11:20:41.549Z,50.85
2018-05-27T11:21:41.561Z,49.61
2018-05-27T11:23:34.576Z,52.83
2018-05-27T11:24:34.645Z,49.41
2018-05-27T11:26:27.665Z,49.22
2018-05-27T11:27:27.732Z,49.32
2018-05-27T11:29:20.744Z,50.99
2018-05-27T11:30:20.812Z,49.34
2018-05-27T11:32:13.834Z,47.73
2018-05-27T11:33:13.896Z,47.83
2018-05-27T11:35:06.913Z,47.07
2018-05-27T11:36:06.978Z,46.88
2018-05-27T11:38:00.017Z,46.53
2018-05-27T11:39:00.058Z,48.00
2018-05-27T11:40:53.082Z,48.29
2018-05-27T11:41:53.149Z,48.22
2018-05-27T11:43:46.175Z,48.54
2018-05-27T11:44:46.245Z,43.75
2018-05-27T11:46:39.267Z,43.46
2018-05-27T11:47:39.332Z,43.24
2018-05-27T11:49:32.346Z,43.82
2018-05-27T11:50:32.423Z,44.80
2018-05-27T11:52:25.439Z,46.95
2018-05-27T11:53:25.506Z,44.21
2018-05-27T11:55:18.529Z,44.02
2018-05-27T11:56:18.600Z,43.53
2018-05-27T11:58:11.601Z,45.41
2018-05-27T11:59:11.680Z,43.95
2018-05-27T12:01:04.697Z,45.12
2018-05-27T12:02:04.813Z,46.46
2018-05-27T12:03:57.772Z,43.80
2018-05-27T12:04:57.845Z,44.29
2018-05-27T12:06:50.871Z,43.33
2018-05-27T12:07:50.937Z,47.53
2018-05-27T12:09:44.243Z,42.24
2018-05-27T12:10:44.022Z,42.26
2018-05-27T12:12:37.037Z,41.85
2018-05-27T12:13:37.107Z,42.55
2018-05-27T12:15:30.127Z,42.73
2018-05-27T12:16:30.193Z,44.48
2018-05-27T12:18:23.206Z,44.58
2018-05-27T12:19:23.278Z,44.48
2018-05-27T12:21:16.292Z,44.66
2018-05-27T12:22:16.358Z,43.41
2018-05-27T12:24:09.442Z,42.61
2018-05-27T12:25:09.443Z,42.51
2018-05-27T12:27:02.475Z,43.59
2018-05-27T12:28:02.520Z,43.29
2018-05-27T12:29:55.570Z,42.12
2018-05-27T12:30:55.602Z,43.19
2018-05-27T12:32:48.618Z,42.98
2018-05-27T12:33:48.683Z,44.07
2018-05-27T12:35:41.701Z,43.68
2018-05-27T12:36:41.767Z,43.37
2018-05-27T12:38:34.780Z,43.78
2018-05-27T12:39:34.848Z,45.15
2018-05-27T12:41:27.877Z,44.05
2018-05-27T12:42:27.930Z,44.24
2018-05-27T12:44:20.941Z,45.03
2018-05-27T12:45:21.009Z,44.83
2018-05-27T12:47:14.025Z,43.85
2018-05-27T12:48:14.119Z,44.34
2018-05-27T12:50:07.100Z,43.49
2018-05-27T12:51:07.173Z,43.78
2018-05-27T12:53:00.191Z,42.71
2018-05-27T12:54:00.259Z,42.80
2018-05-27T12:55:53.275Z,43.39
2018-05-27T12:56:53.341Z,44.29
2018-05-27T12:58:46.347Z,43.10
2018-05-27T12:59:46.421Z,42.71
2018-05-27T13:01:39.438Z,43.68
2018-05-27T13:02:39.505Z,43.39
2018-05-27T13:04:32.516Z,43.10
2018-05-27T13:05:32.589Z,42.00
2018-05-27T13:07:25.605Z,43.37
2018-05-27T13:08:25.673Z,43.95
2018-05-27T13:10:18.690Z,42.71
2018-05-27T13:11:18.764Z,43.00
2018-05-27T13:13:11.774Z,41.22
2018-05-27T13:14:11.846Z,42.40
2018-05-27T13:16:04.870Z,43.27
2018-05-27T13:17:04.925Z,43.57
2018-05-27T13:18:57.938Z,44.15
2018-05-27T13:19:58.014Z,44.83
2018-05-27T13:21:51.032Z,43.49
2018-05-27T13:22:51.098Z,42.12
2018-05-27T13:24:44.113Z,40.95
2018-05-27T13:25:44.187Z,41.73
2018-05-27T13:27:37.209Z,39.47
2018-05-27T13:28:37.268Z,40.35
2018-05-27T13:30:30.280Z,40.72
2018-05-27T13:31:30.355Z,40.81
2018-05-27T13:33:23.381Z,41.20
2018-05-27T13:34:23.443Z,40.91
2018-05-27T13:36:16.468Z,42.74
2018-05-27T13:37:16.533Z,42.35
2018-05-27T13:39:09.546Z,43.40
2018-05-27T13:40:09.614Z,43.01
2018-05-27T13:42:03.136Z,43.38
2018-05-27T13:43:03.199Z,43.48
2018-05-27T13:44:56.262Z,43.58
2018-05-27T13:45:56.279Z,43.87
2018-05-27T13:47:49.289Z,44.35
2018-05-27T13:48:49.354Z,44.35
2018-05-27T13:50:42.376Z,44.35
2018-05-27T13:51:42.435Z,44.35
2018-05-27T13:53:35.487Z,44.16
2018-05-27T13:54:35.516Z,43.85
2018-05-27T13:56:28.552Z,43.96
2018-05-27T13:57:28.601Z,43.96
2018-05-27T13:59:21.613Z,45.14
2018-05-27T14:00:21.723Z,45.91
2018-05-27T14:02:14.707Z,45.04
2018-05-27T14:03:14.765Z,45.14
2018-05-27T14:05:07.777Z,44.65
2018-05-27T14:06:07.848Z,45.04
2018-05-27T14:08:00.855Z,46.01
2018-05-27T14:09:00.920Z,45.23
2018-05-27T14:10:53.934Z,45.81
2018-05-27T14:11:54.005Z,45.32
2018-05-27T14:13:47.024Z,45.50
2018-05-27T14:14:47.094Z,46.40
2018-05-27T14:16:40.101Z,45.98
2018-05-27T14:17:40.165Z,46.57
2018-05-27T14:19:33.178Z,48.90
2018-05-27T14:20:33.243Z,47.44
2018-05-27T14:22:26.266Z,46.77
2018-05-27T14:23:26.333Z,46.37
2018-05-27T14:25:19.904Z,46.37
2018-05-27T14:26:19.915Z,46.86
2018-05-27T14:28:12.934Z,47.44
2018-05-27T14:29:12.989Z,47.25
2018-05-27T14:31:06.002Z,47.05
2018-05-27T14:32:06.066Z,47.74
2018-05-27T14:33:59.094Z,46.84
2018-05-27T14:34:59.166Z,48.90
2018-05-27T14:36:52.158Z,47.44
2018-05-27T14:37:52.231Z,47.64
2018-05-27T14:39:45.235Z,49.29
2018-05-27T14:40:45.308Z,51.92
2018-05-27T14:42:38.321Z,54.90
2018-05-27T14:43:38.385Z,57.89
2018-05-27T14:45:31.397Z,62.29
2018-05-27T14:46:31.458Z,63.95
2018-05-27T14:48:24.473Z,64.72
2018-05-27T14:49:24.536Z,65.50
2018-05-27T14:51:17.544Z,66.34
2018-05-27T14:52:17.615Z,67.95
2018-05-27T14:54:10.625Z,69.79
2018-05-27T14:55:10.994Z,69.89
2018-05-27T14:57:03.700Z,70.76
2018-05-27T14:58:03.818Z,69.50
2018-05-27T14:59:56.778Z,70.37
2018-05-27T15:00:56.835Z,70.54
2018-05-27T15:02:49.851Z,70.83
2018-05-27T15:03:49.912Z,71.86
2018-05-27T15:05:42.918Z,73.41
2018-05-27T15:06:42.987Z,73.50
2018-05-27T15:08:36.026Z,73.99
2018-05-27T15:09:36.063Z,74.28
2018-05-27T15:11:29.083Z,74.66
2018-05-27T15:12:29.153Z,74.15
2018-05-27T15:14:22.162Z,73.85
2018-05-27T15:15:22.227Z,73.66
2018-05-27T15:17:15.237Z,72.30
2018-05-27T15:18:15.297Z,73.33
2018-05-27T15:20:08.302Z,72.08
2018-05-27T15:21:08.372Z,70.72
2018-05-27T15:23:01.383Z,71.50
2018-05-27T15:24:01.445Z,69.66
2018-05-27T15:25:54.457Z,69.08
2018-05-27T15:26:54.519Z,67.14
2018-05-27T15:28:47.538Z,67.91
2018-05-27T15:29:47.597Z,67.53
2018-05-27T15:31:40.600Z,68.95
2018-05-27T15:32:40.672Z,67.30
2018-05-27T15:34:33.682Z,65.56
2018-05-27T15:35:33.743Z,63.92
2018-05-27T15:37:26.752Z,64.98
2018-05-27T15:38:26.816Z,68.37
2018-05-27T15:40:19.820Z,65.17
2018-05-27T15:41:19.896Z,67.59
2018-05-27T15:43:12.900Z,67.66
2018-05-27T15:44:12.965Z,66.05
2018-05-27T15:46:05.969Z,66.59
2018-05-27T15:47:06.040Z,66.05
2018-05-27T15:48:59.048Z,66.72
2018-05-27T15:50:00.111Z,64.69
2018-05-27T15:51:52.126Z,65.85
2018-05-27T15:52:52.198Z,64.50
2018-05-27T15:54:45.235Z,64.98
2018-05-27T15:55:45.279Z,67.30
2018-05-27T15:57:38.298Z,67.59
2018-05-27T15:58:38.346Z,67.40
2018-05-27T16:00:31.358Z,68.56
2018-05-27T16:01:31.426Z,68.46
2018-05-27T16:03:24.445Z,68.66
2018-05-27T16:04:24.514Z,70.10
2018-05-27T16:06:17.523Z,72.72
2018-05-27T16:07:17.596Z,71.84
2018-05-27T16:09:10.602Z,72.72
2018-05-27T16:10:10.667Z,73.88
2018-05-27T16:12:03.660Z,72.52
2018-05-27T16:13:03.735Z,72.62
2018-05-27T16:14:56.751Z,73.59
2018-05-27T16:15:56.809Z,73.88
2018-05-27T16:17:49.827Z,72.81
2018-05-27T16:18:49.885Z,72.81
2018-05-27T16:20:42.888Z,72.52
2018-05-27T16:21:42.955Z,71.94
2018-05-27T16:23:35.980Z,71.84
2018-05-27T16:24:36.036Z,72.24
2018-05-27T16:26:29.043Z,71.36
2018-05-27T16:27:29.110Z,69.62
2018-05-27T16:29:22.136Z,69.95
2018-05-27T16:30:22.189Z,68.95
2018-05-27T16:32:15.199Z,68.37
2018-05-27T16:33:15.269Z,66.14
2018-05-27T16:35:08.277Z,66.98
2018-05-27T16:36:08.344Z,67.66
2018-05-27T16:38:01.357Z,70.52
2018-05-27T16:39:01.419Z,67.91
2018-05-27T16:40:54.439Z,69.56
2018-05-27T16:41:54.507Z,68.30
2018-05-27T16:43:47.516Z,67.97
2018-05-27T16:44:47.586Z,67.30
2018-05-27T16:46:40.599Z,69.32
2018-05-27T16:47:40.666Z,68.07
2018-05-27T16:49:33.672Z,69.13
2018-05-27T16:50:33.733Z,68.49
2018-05-27T16:52:26.735Z,68.65
2018-05-27T16:53:26.803Z,65.98
2018-05-27T16:55:19.813Z,67.33
2018-05-27T16:56:19.876Z,68.68
2018-05-27T16:58:12.889Z,69.36
2018-05-27T16:59:12.950Z,71.00
2018-05-27T17:01:05.952Z,70.32
2018-05-27T17:02:06.016Z,70.72
2018-05-27T17:03:59.027Z,70.72
2018-05-27T17:04:59.086Z,70.62
2018-05-27T17:06:52.096Z,70.72
2018-05-27T17:07:52.160Z,69.65
2018-05-27T17:09:45.172Z,69.65
2018-05-27T17:10:45.229Z,69.46
2018-05-27T17:12:38.234Z,69.56
2018-05-27T17:13:38.302Z,69.56
2018-05-27T17:15:31.308Z,69.07
2018-05-27T17:16:31.371Z,69.17
2018-05-27T17:18:24.383Z,68.10
2018-05-27T17:19:24.442Z,69.74
2018-05-27T17:21:17.448Z,68.20
2018-05-27T17:22:17.510Z,65.37
2018-05-27T17:24:10.526Z,61.60
2018-05-27T17:25:10.588Z,62.86
2018-05-27T17:27:03.598Z,62.28
2018-05-27T17:28:03.669Z,61.12
2018-05-27T17:29:56.680Z,64.79
2018-05-27T17:30:56.742Z,65.66
2018-05-27T17:32:49.741Z,64.21
2018-05-27T17:33:49.811Z,56.39
2018-05-27T17:35:42.821Z,66.33
2018-05-27T17:36:42.881Z,67.11
2018-05-27T17:38:35.894Z,67.01
2018-05-27T17:39:35.960Z,66.33
2018-05-27T17:41:28.961Z,52.72
2018-05-27T17:42:29.026Z,58.90
2018-05-27T17:44:22.034Z,59.67
2018-05-27T17:45:22.097Z,55.42
2018-05-27T17:47:15.102Z,57.26
2018-05-27T17:48:15.175Z,56.96
2018-05-27T17:50:08.177Z,54.27
2018-05-27T17:51:08.244Z,53.39
2018-05-27T17:53:01.250Z,56.99
2018-05-27T17:54:01.320Z,55.93
2018-05-27T17:55:54.327Z,62.70
2018-05-27T17:56:54.388Z,59.60
2018-05-27T17:58:47.404Z,57.57
2018-05-27T17:59:47.463Z,58.73
2018-05-27T18:01:40.466Z,59.92
2018-05-27T18:02:40.534Z,60.09
2018-05-27T18:04:33.545Z,59.99
2018-05-27T18:05:33.609Z,59.63
2018-05-27T18:07:26.612Z,58.09
2018-05-27T18:08:26.679Z,63.98
2018-05-27T18:10:19.688Z,63.89
2018-05-27T18:11:19.763Z,62.82
2018-05-27T18:13:12.750Z,61.63
2018-05-27T18:14:12.820Z,62.70
2018-05-27T18:16:05.828Z,60.57
2018-05-27T18:17:05.890Z,60.86
2018-05-27T18:18:58.897Z,61.92
2018-05-27T18:19:58.962Z,60.21
2018-05-27T18:21:51.966Z,61.08
2018-05-27T18:22:52.034Z,60.11
2018-05-27T18:24:45.045Z,56.54
2018-05-27T18:25:45.109Z,59.53
2018-05-27T18:27:38.109Z,58.18
2018-05-27T18:28:38.190Z,59.34
2018-05-27T18:30:31.217Z,61.47
2018-05-27T18:31:31.255Z,63.98
2018-05-27T18:33:24.251Z,62.92
2018-05-27T18:34:24.317Z,58.09